sensor_id;sensor_type;location;lat;lon;timestamp;P1;durP1;ratioP1;P2;durP2;ratioP2
73569;SDS011;61850;54.980;73.298;2022-08-30T02:15:22;44.35;;;18.05;;
73569;SDS011;61850;54.980;73.298;2022-08-30T02:17:48;47.47;;;18.13;;
73569;SDS011;61850;54.980;73.298;2022-08-30T02:20:14;36.92;;;17.88;;
73569;SDS011;61850;54.980;73.298;2022-08-30T02:22:46;54.75;;;19.45;;
73569;SDS011;61850;54.980;73.298;2022-08-30T02:25:12;38.70;;;18.55;;
73569;SDS011;61850;54.980;73.298;2022-08-30T02:27:39;50.97;;;19.00;;
73569;SDS011;61850;54.980;73.298;2022-08-30T02:30:15;41.15;;;17.50;;
73569;SDS011;61850;54.980;73.298;2022-08-30T02:32:41;38.67;;;18.20;;
73569;SDS011;61850;54.980;73.298;2022-08-30T02:37:45;44.00;;;19.27;;
73569;SDS011;61850;54.980;73.298;2022-08-30T02:40:11;46.85;;;17.92;;
73569;SDS011;61850;54.980;73.298;2022-08-30T02:42:42;46.53;;;18.10;;
73569;SDS011;61850;54.980;73.298;2022-08-30T02:45:14;49.95;;;18.55;;
73569;SDS011;61850;54.980;73.298;2022-08-30T02:47:51;40.40;;;18.58;;
73569;SDS011;61850;54.980;73.298;2022-08-30T02:50:28;43.30;;;18.60;;
73569;SDS011;61850;54.980;73.298;2022-08-30T02:53:06;40.90;;;19.00;;
73569;SDS011;61850;54.980;73.298;2022-08-30T02:55:40;47.35;;;18.58;;
73569;SDS011;61850;54.980;73.298;2022-08-30T02:58:07;44.67;;;19.35;;
73569;SDS011;61850;54.980;73.298;2022-08-30T03:00:35;42.97;;;18.65;;
73569;SDS011;61850;54.980;73.298;2022-08-30T03:03:06;42.05;;;18.77;;
73569;SDS011;61850;54.980;73.298;2022-08-30T03:05:33;41.33;;;17.38;;
73569;SDS011;61850;54.980;73.298;2022-08-30T03:08:00;46.10;;;19.13;;
73569;SDS011;61850;54.980;73.298;2022-08-30T03:10:38;45.03;;;18.13;;
73569;SDS011;61850;54.980;73.298;2022-08-30T03:13:09;46.63;;;17.17;;
73569;SDS011;61850;54.980;73.298;2022-08-30T03:15:37;52.13;;;17.88;;
73569;SDS011;61850;54.980;73.298;2022-08-30T03:18:15;53.08;;;18.40;;
73569;SDS011;61850;54.980;73.298;2022-08-30T03:20:43;38.80;;;18.27;;
73569;SDS011;61850;54.980;73.298;2022-08-30T03:23:18;46.33;;;17.85;;
73569;SDS011;61850;54.980;73.298;2022-08-30T03:25:54;44.38;;;18.08;;
73569;SDS011;61850;54.980;73.298;2022-08-30T03:28:22;44.92;;;17.67;;
73569;SDS011;61850;54.980;73.298;2022-08-30T03:30:51;38.20;;;17.52;;
73569;SDS011;61850;54.980;73.298;2022-08-30T03:33:17;49.00;;;18.77;;
73569;SDS011;61850;54.980;73.298;2022-08-30T03:35:43;48.15;;;20.20;;
73569;SDS011;61850;54.980;73.298;2022-08-30T03:38:09;38.90;;;17.35;;
73569;SDS011;61850;54.980;73.298;2022-08-30T03:40:41;50.50;;;17.35;;
73569;SDS011;61850;54.980;73.298;2022-08-30T03:43:12;41.67;;;17.35;;
73569;SDS011;61850;54.980;73.298;2022-08-30T03:45:39;46.70;;;17.42;;
73569;SDS011;61850;54.980;73.298;2022-08-30T03:48:05;42.47;;;17.75;;
73569;SDS011;61850;54.980;73.298;2022-08-30T03:50:41;37.95;;;16.23;;
73569;SDS011;61850;54.980;73.298;2022-08-30T03:53:08;40.88;;;17.15;;
73569;SDS011;61850;54.980;73.298;2022-08-30T03:55:35;53.60;;;17.90;;
73569;SDS011;61850;54.980;73.298;2022-08-30T03:58:02;50.10;;;18.20;;
73569;SDS011;61850;54.980;73.298;2022-08-30T04:00:38;45.42;;;18.08;;
73569;SDS011;61850;54.980;73.298;2022-08-30T04:03:04;43.92;;;19.15;;
73569;SDS011;61850;54.980;73.298;2022-08-30T04:05:30;46.60;;;21.42;;
73569;SDS011;61850;54.980;73.298;2022-08-30T04:08:00;51.88;;;20.58;;
73569;SDS011;61850;54.980;73.298;2022-08-30T04:10:31;40.40;;;20.50;;
73569;SDS011;61850;54.980;73.298;2022-08-30T04:13:03;49.72;;;20.55;;
73569;SDS011;61850;54.980;73.298;2022-08-30T04:15:30;44.58;;;18.52;;
73569;SDS011;61850;54.980;73.298;2022-08-30T04:18:01;44.55;;;18.73;;
73569;SDS011;61850;54.980;73.298;2022-08-30T04:20:29;52.30;;;18.40;;
73569;SDS011;61850;54.980;73.298;2022-08-30T04:23:06;49.65;;;18.50;;
73569;SDS011;61850;54.980;73.298;2022-08-30T04:25:33;43.92;;;17.77;;
73569;SDS011;61850;54.980;73.298;2022-08-30T04:28:00;40.53;;;17.08;;
73569;SDS011;61850;54.980;73.298;2022-08-30T04:30:27;45.97;;;17.17;;
73569;SDS011;61850;54.980;73.298;2022-08-30T04:32:53;41.97;;;17.20;;
73569;SDS011;61850;54.980;73.298;2022-08-30T04:35:25;30.00;;;14.65;;
73569;SDS011;61850;54.980;73.298;2022-08-30T04:37:51;32.00;;;14.82;;
73569;SDS011;61850;54.980;73.298;2022-08-30T04:40:22;36.47;;;15.43;;
73569;SDS011;61850;54.980;73.298;2022-08-30T04:42:48;35.83;;;16.77;;
73569;SDS011;61850;54.980;73.298;2022-08-30T04:45:18;34.75;;;14.73;;
73569;SDS011;61850;54.980;73.298;2022-08-30T04:47:46;30.50;;;14.88;;
73569;SDS011;61850;54.980;73.298;2022-08-30T04:50:22;35.88;;;15.55;;
73569;SDS011;61850;54.980;73.298;2022-08-30T04:52:49;37.85;;;15.93;;
73569;SDS011;61850;54.980;73.298;2022-08-30T04:55:17;32.85;;;16.63;;
73569;SDS011;61850;54.980;73.298;2022-08-30T04:57:44;36.20;;;14.95;;
73569;SDS011;61850;54.980;73.298;2022-08-30T05:00:12;43.67;;;16.40;;
73569;SDS011;61850;54.980;73.298;2022-08-30T05:02:48;35.63;;;15.85;;
73569;SDS011;61850;54.980;73.298;2022-08-30T05:05:14;35.20;;;16.02;;
73569;SDS011;61850;54.980;73.298;2022-08-30T05:07:59;30.60;;;15.00;;
73569;SDS011;61850;54.980;73.298;2022-08-30T05:10:25;39.60;;;16.23;;
73569;SDS011;61850;54.980;73.298;2022-08-30T05:12:53;33.80;;;15.90;;
73569;SDS011;61850;54.980;73.298;2022-08-30T05:15:29;34.20;;;16.00;;
73569;SDS011;61850;54.980;73.298;2022-08-30T05:17:56;30.95;;;15.77;;
73569;SDS011;61850;54.980;73.298;2022-08-30T05:20:23;27.70;;;15.82;;
73569;SDS011;61850;54.980;73.298;2022-08-30T05:22:50;30.98;;;16.90;;
73569;SDS011;61850;54.980;73.298;2022-08-30T05:25:22;25.83;;;15.10;;
73569;SDS011;61850;54.980;73.298;2022-08-30T05:27:54;33.45;;;16.73;;
73569;SDS011;61850;54.980;73.298;2022-08-30T05:30:21;33.22;;;16.75;;
73569;SDS011;61850;54.980;73.298;2022-08-30T05:32:49;32.58;;;15.80;;
73569;SDS011;61850;54.980;73.298;2022-08-30T05:35:16;27.67;;;14.75;;
73569;SDS011;61850;54.980;73.298;2022-08-30T05:37:49;30.05;;;15.43;;
73569;SDS011;61850;54.980;73.298;2022-08-30T05:40:18;24.38;;;13.60;;
73569;SDS011;61850;54.980;73.298;2022-08-30T05:42:52;32.88;;;13.73;;
73569;SDS011;61850;54.980;73.298;2022-08-30T05:45:20;29.58;;;14.68;;
73569;SDS011;61850;54.980;73.298;2022-08-30T05:50:29;24.70;;;13.48;;
73569;SDS011;61850;54.980;73.298;2022-08-30T05:52:55;26.02;;;13.15;;
73569;SDS011;61850;54.980;73.298;2022-08-30T05:55:21;21.60;;;12.70;;
73569;SDS011;61850;54.980;73.298;2022-08-30T05:57:47;26.88;;;13.77;;
73569;SDS011;61850;54.980;73.298;2022-08-30T06:00:14;22.13;;;13.93;;
73569;SDS011;61850;54.980;73.298;2022-08-30T06:02:42;21.75;;;13.40;;
73569;SDS011;61850;54.980;73.298;2022-08-30T06:05:18;23.70;;;14.10;;
73569;SDS011;61850;54.980;73.298;2022-08-30T06:07:48;20.33;;;13.43;;
73569;SDS011;61850;54.980;73.298;2022-08-30T06:10:19;20.73;;;13.60;;
73569;SDS011;61850;54.980;73.298;2022-08-30T06:12:46;25.95;;;12.82;;
73569;SDS011;61850;54.980;73.298;2022-08-30T06:15:19;22.52;;;13.02;;
73569;SDS011;61850;54.980;73.298;2022-08-30T06:17:46;24.60;;;13.98;;
73569;SDS011;61850;54.980;73.298;2022-08-30T06:20:13;20.00;;;12.45;;
73569;SDS011;61850;54.980;73.298;2022-08-30T06:22:43;20.25;;;12.75;;
73569;SDS011;61850;54.980;73.298;2022-08-30T06:25:09;25.55;;;13.02;;
73569;SDS011;61850;54.980;73.298;2022-08-30T06:27:42;20.05;;;12.98;;
73569;SDS011;61850;54.980;73.298;2022-08-30T06:30:08;22.50;;;13.68;;
73569;SDS011;61850;54.980;73.298;2022-08-30T06:32:37;26.70;;;13.85;;
73569;SDS011;61850;54.980;73.298;2022-08-30T06:35:04;20.42;;;12.95;;
73569;SDS011;61850;54.980;73.298;2022-08-30T06:37:31;24.92;;;13.25;;
73569;SDS011;61850;54.980;73.298;2022-08-30T06:39:59;19.27;;;13.25;;
73569;SDS011;61850;54.980;73.298;2022-08-30T06:42:29;18.60;;;13.40;;
73569;SDS011;61850;54.980;73.298;2022-08-30T06:45:08;28.98;;;13.35;;
73569;SDS011;61850;54.980;73.298;2022-08-30T06:47:34;18.30;;;12.63;;
73569;SDS011;61850;54.980;73.298;2022-08-30T06:50:00;19.83;;;12.55;;
73569;SDS011;61850;54.980;73.298;2022-08-30T06:52:26;20.23;;;12.02;;
73569;SDS011;61850;54.980;73.298;2022-08-30T06:54:53;21.90;;;12.45;;
73569;SDS011;61850;54.980;73.298;2022-08-30T06:57:32;20.77;;;13.07;;
73569;SDS011;61850;54.980;73.298;2022-08-30T06:59:59;18.08;;;12.55;;
73569;SDS011;61850;54.980;73.298;2022-08-30T07:02:26;19.58;;;12.90;;
73569;SDS011;61850;54.980;73.298;2022-08-30T07:04:53;17.25;;;13.13;;
73569;SDS011;61850;54.980;73.298;2022-08-30T07:07:25;20.38;;;12.60;;
73569;SDS011;61850;54.980;73.298;2022-08-30T07:09:50;22.02;;;12.70;;
73569;SDS011;61850;54.980;73.298;2022-08-30T07:12:18;22.02;;;12.82;;
73569;SDS011;61850;54.980;73.298;2022-08-30T07:14:44;18.65;;;13.20;;
73569;SDS011;61850;54.980;73.298;2022-08-30T07:17:10;20.73;;;13.82;;
73569;SDS011;61850;54.980;73.298;2022-08-30T07:20:02;23.77;;;13.85;;
73569;SDS011;61850;54.980;73.298;2022-08-30T07:22:33;21.30;;;13.02;;
73569;SDS011;61850;54.980;73.298;2022-08-30T07:25:00;22.25;;;13.32;;
73569;SDS011;61850;54.980;73.298;2022-08-30T07:27:27;34.47;;;14.57;;
73569;SDS011;61850;54.980;73.298;2022-08-30T07:29:53;19.05;;;13.45;;
73569;SDS011;61850;54.980;73.298;2022-08-30T07:32:20;23.60;;;13.25;;
73569;SDS011;61850;54.980;73.298;2022-08-30T07:34:46;20.38;;;12.77;;
73569;SDS011;61850;54.980;73.298;2022-08-30T07:37:12;20.60;;;13.07;;
73569;SDS011;61850;54.980;73.298;2022-08-30T07:39:38;17.40;;;12.07;;
73569;SDS011;61850;54.980;73.298;2022-08-30T07:42:05;18.77;;;12.55;;
73569;SDS011;61850;54.980;73.298;2022-08-30T07:44:31;18.13;;;12.30;;
73569;SDS011;61850;54.980;73.298;2022-08-30T07:46:57;18.45;;;12.07;;
73569;SDS011;61850;54.980;73.298;2022-08-30T07:49:23;18.55;;;11.90;;
73569;SDS011;61850;54.980;73.298;2022-08-30T07:51:49;21.33;;;12.38;;
73569;SDS011;61850;54.980;73.298;2022-08-30T07:54:16;18.00;;;12.13;;
73569;SDS011;61850;54.980;73.298;2022-08-30T07:56:42;24.08;;;12.55;;
73569;SDS011;61850;54.980;73.298;2022-08-30T07:59:09;19.30;;;12.43;;
73569;SDS011;61850;54.980;73.298;2022-08-30T08:01:35;20.38;;;12.13;;
73569;SDS011;61850;54.980;73.298;2022-08-30T08:04:06;16.35;;;12.25;;
73569;SDS011;61850;54.980;73.298;2022-08-30T08:06:36;22.05;;;12.40;;
73569;SDS011;61850;54.980;73.298;2022-08-30T08:09:15;16.95;;;12.32;;
73569;SDS011;61850;54.980;73.298;2022-08-30T08:11:41;20.65;;;12.15;;
73569;SDS011;61850;54.980;73.298;2022-08-30T08:14:07;21.13;;;12.55;;
73569;SDS011;61850;54.980;73.298;2022-08-30T08:16:35;20.85;;;12.38;;
73569;SDS011;61850;54.980;73.298;2022-08-30T08:19:02;21.65;;;12.50;;
73569;SDS011;61850;54.980;73.298;2022-08-30T08:21:29;19.83;;;12.57;;
73569;SDS011;61850;54.980;73.298;2022-08-30T08:23:55;23.73;;;12.63;;
73569;SDS011;61850;54.980;73.298;2022-08-30T08:26:22;21.27;;;13.05;;
73569;SDS011;61850;54.980;73.298;2022-08-30T08:28:48;20.40;;;12.25;;
73569;SDS011;61850;54.980;73.298;2022-08-30T08:31:15;20.05;;;12.63;;
73569;SDS011;61850;54.980;73.298;2022-08-30T08:33:47;18.13;;;12.75;;
73569;SDS011;61850;54.980;73.298;2022-08-30T08:36:13;21.75;;;13.23;;
73569;SDS011;61850;54.980;73.298;2022-08-30T08:38:40;21.05;;;12.10;;
73569;SDS011;61850;54.980;73.298;2022-08-30T08:41:20;21.67;;;12.13;;
73569;SDS011;61850;54.980;73.298;2022-08-30T08:50:00;18.40;;;11.15;;
73569;SDS011;61850;54.980;73.298;2022-08-30T08:55:51;20.52;;;11.95;;
73569;SDS011;61850;54.980;73.298;2022-08-30T08:58:24;15.93;;;10.82;;
73569;SDS011;61850;54.980;73.298;2022-08-30T09:00:56;17.33;;;10.88;;
73569;SDS011;61850;54.980;73.298;2022-08-30T09:03:33;17.83;;;11.07;;
73569;SDS011;61850;54.980;73.298;2022-08-30T09:06:36;18.73;;;11.07;;
73569;SDS011;61850;54.980;73.298;2022-08-30T09:09:03;17.77;;;11.27;;
73569;SDS011;61850;54.980;73.298;2022-08-30T09:11:31;17.42;;;11.20;;
73569;SDS011;61850;54.980;73.298;2022-08-30T09:14:00;18.85;;;11.40;;
73569;SDS011;61850;54.980;73.298;2022-08-30T09:19:33;16.73;;;10.43;;
73569;SDS011;61850;54.980;73.298;2022-08-30T09:24:59;18.45;;;9.55;;
73569;SDS011;61850;54.980;73.298;2022-08-30T09:27:27;20.80;;;10.20;;
73569;SDS011;61850;54.980;73.298;2022-08-30T09:30:20;21.35;;;10.85;;
73569;SDS011;61850;54.980;73.298;2022-08-30T09:32:57;16.42;;;10.73;;
73569;SDS011;61850;54.980;73.298;2022-08-30T09:38:15;24.80;;;12.63;;
73569;SDS011;61850;54.980;73.298;2022-08-30T09:40:44;29.33;;;12.85;;
73569;SDS011;61850;54.980;73.298;2022-08-30T09:43:19;23.25;;;12.55;;
73569;SDS011;61850;54.980;73.298;2022-08-30T09:45:48;30.58;;;13.07;;
73569;SDS011;61850;54.980;73.298;2022-08-30T09:51:04;23.67;;;13.18;;
73569;SDS011;61850;54.980;73.298;2022-08-30T09:56:19;33.33;;;14.38;;
73569;SDS011;61850;54.980;73.298;2022-08-30T10:01:47;27.35;;;13.95;;
73569;SDS011;61850;54.980;73.298;2022-08-30T10:07:12;34.53;;;15.02;;
73569;SDS011;61850;54.980;73.298;2022-08-30T10:15:32;28.05;;;15.23;;
73569;SDS011;61850;54.980;73.298;2022-08-30T10:20:53;30.05;;;16.33;;
73569;SDS011;61850;54.980;73.298;2022-08-30T10:26:29;26.83;;;14.27;;
73569;SDS011;61850;54.980;73.298;2022-08-30T10:29:03;35.65;;;14.77;;
73569;SDS011;61850;54.980;73.298;2022-08-30T10:34:48;27.90;;;13.95;;
73569;SDS011;61850;54.980;73.298;2022-08-30T10:37:25;24.70;;;15.40;;
73569;SDS011;61850;54.980;73.298;2022-08-30T10:40:01;28.42;;;14.63;;
73569;SDS011;61850;54.980;73.298;2022-08-30T10:42:52;24.48;;;16.13;;
73569;SDS011;61850;54.980;73.298;2022-08-30T10:45:27;30.33;;;16.52;;
73569;SDS011;61850;54.980;73.298;2022-08-30T10:47:59;38.00;;;17.80;;
73569;SDS011;61850;54.980;73.298;2022-08-30T10:50:33;28.67;;;16.10;;
73569;SDS011;61850;54.980;73.298;2022-08-30T10:53:11;31.17;;;14.73;;
73569;SDS011;61850;54.980;73.298;2022-08-30T10:55:52;30.95;;;14.95;;
73569;SDS011;61850;54.980;73.298;2022-08-30T10:58:25;39.65;;;15.23;;
73569;SDS011;61850;54.980;73.298;2022-08-30T11:01:07;38.95;;;15.73;;
73569;SDS011;61850;54.980;73.298;2022-08-30T11:12:35;39.60;;;15.13;;
73569;SDS011;61850;54.980;73.298;2022-08-30T11:15:14;47.05;;;16.50;;
73569;SDS011;61850;54.980;73.298;2022-08-30T11:20:32;33.85;;;14.82;;
73569;SDS011;61850;54.980;73.298;2022-08-30T11:33:59;30.20;;;15.10;;
73569;SDS011;61850;54.980;73.298;2022-08-30T11:39:00;26.50;;;13.93;;
73569;SDS011;61850;54.980;73.298;2022-08-30T11:41:44;25.02;;;13.30;;
73569;SDS011;61850;54.980;73.298;2022-08-30T11:46:51;23.45;;;13.27;;
73569;SDS011;61850;54.980;73.298;2022-08-30T11:55:12;27.45;;;13.80;;
73569;SDS011;61850;54.980;73.298;2022-08-30T12:00:37;29.83;;;13.70;;
73569;SDS011;61850;54.980;73.298;2022-08-30T12:08:09;33.17;;;13.73;;
73569;SDS011;61850;54.980;73.298;2022-08-30T12:11:04;26.02;;;13.00;;
73569;SDS011;61850;54.980;73.298;2022-08-30T12:18:42;20.77;;;9.70;;
73569;SDS011;61850;54.980;73.298;2022-08-30T12:21:24;13.20;;;9.60;;
73569;SDS011;61850;54.980;73.298;2022-08-30T12:23:57;18.33;;;9.93;;
73569;SDS011;61850;54.980;73.298;2022-08-30T12:29:15;15.70;;;9.50;;
73569;SDS011;61850;54.980;73.298;2022-08-30T12:31:50;18.88;;;9.75;;
73569;SDS011;61850;54.980;73.298;2022-08-30T12:34:55;14.35;;;9.75;;
73569;SDS011;61850;54.980;73.298;2022-08-30T12:42:31;18.40;;;9.57;;
73569;SDS011;61850;54.980;73.298;2022-08-30T12:45:11;22.52;;;10.00;;
73569;SDS011;61850;54.980;73.298;2022-08-30T12:50:34;16.92;;;9.38;;
73569;SDS011;61850;54.980;73.298;2022-08-30T12:53:26;14.98;;;9.40;;
73569;SDS011;61850;54.980;73.298;2022-08-30T13:01:12;20.23;;;11.00;;
73569;SDS011;61850;54.980;73.298;2022-08-30T13:03:52;22.85;;;10.90;;
73569;SDS011;61850;54.980;73.298;2022-08-30T13:06:40;23.58;;;10.73;;
73569;SDS011;61850;54.980;73.298;2022-08-30T13:09:32;23.45;;;11.68;;
73569;SDS011;61850;54.980;73.298;2022-08-30T13:12:10;17.83;;;11.05;;
73569;SDS011;61850;54.980;73.298;2022-08-30T13:14:47;14.77;;;10.07;;
73569;SDS011;61850;54.980;73.298;2022-08-30T13:17:21;20.52;;;10.77;;
73569;SDS011;61850;54.980;73.298;2022-08-30T13:25:30;18.35;;;11.13;;
73569;SDS011;61850;54.980;73.298;2022-08-30T13:28:11;18.58;;;10.93;;
73569;SDS011;61850;54.980;73.298;2022-08-30T13:30:39;19.98;;;10.73;;
73569;SDS011;61850;54.980;73.298;2022-08-30T13:33:18;17.48;;;10.20;;
73569;SDS011;61850;54.980;73.298;2022-08-30T13:35:45;26.90;;;11.00;;
73569;SDS011;61850;54.980;73.298;2022-08-30T13:38:11;20.92;;;10.80;;
73569;SDS011;61850;54.980;73.298;2022-08-30T13:40:37;18.92;;;11.10;;
73569;SDS011;61850;54.980;73.298;2022-08-30T13:43:33;17.38;;;10.55;;
73569;SDS011;61850;54.980;73.298;2022-08-30T13:46:07;24.83;;;11.23;;
73569;SDS011;61850;54.980;73.298;2022-08-30T13:48:36;21.23;;;10.23;;
73569;SDS011;61850;54.980;73.298;2022-08-30T13:51:02;16.10;;;9.93;;
73569;SDS011;61850;54.980;73.298;2022-08-30T13:53:30;17.23;;;10.68;;
73569;SDS011;61850;54.980;73.298;2022-08-30T13:56:02;24.30;;;11.05;;
73569;SDS011;61850;54.980;73.298;2022-08-30T13:58:31;20.83;;;10.10;;
73569;SDS011;61850;54.980;73.298;2022-08-30T14:01:04;18.08;;;10.88;;
73569;SDS011;61850;54.980;73.298;2022-08-30T14:03:40;20.60;;;11.88;;
73569;SDS011;61850;54.980;73.298;2022-08-30T14:06:07;22.17;;;11.18;;
73569;SDS011;61850;54.980;73.298;2022-08-30T14:08:34;17.98;;;10.60;;
73569;SDS011;61850;54.980;73.298;2022-08-30T14:11:17;28.38;;;11.30;;
73569;SDS011;61850;54.980;73.298;2022-08-30T14:14:02;30.30;;;11.75;;
73569;SDS011;61850;54.980;73.298;2022-08-30T14:16:36;36.60;;;13.32;;
73569;SDS011;61850;54.980;73.298;2022-08-30T14:19:09;40.40;;;14.18;;
73569;SDS011;61850;54.980;73.298;2022-08-30T14:21:53;26.88;;;13.82;;
73569;SDS011;61850;54.980;73.298;2022-08-30T14:24:26;31.83;;;13.00;;
73569;SDS011;61850;54.980;73.298;2022-08-30T14:26:58;38.17;;;14.00;;
73569;SDS011;61850;54.980;73.298;2022-08-30T14:29:25;38.67;;;15.32;;
73569;SDS011;61850;54.980;73.298;2022-08-30T14:31:54;32.88;;;15.80;;
73569;SDS011;61850;54.980;73.298;2022-08-30T14:34:21;36.13;;;15.52;;
73569;SDS011;61850;54.980;73.298;2022-08-30T14:36:47;43.40;;;16.45;;
73569;SDS011;61850;54.980;73.298;2022-08-30T14:39:15;38.67;;;15.95;;
73569;SDS011;61850;54.980;73.298;2022-08-30T14:41:44;36.30;;;15.65;;
73569;SDS011;61850;54.980;73.298;2022-08-30T14:44:12;38.20;;;17.73;;
73569;SDS011;61850;54.980;73.298;2022-08-30T14:46:45;37.75;;;19.30;;
73569;SDS011;61850;54.980;73.298;2022-08-30T14:49:12;36.42;;;16.48;;
73569;SDS011;61850;54.980;73.298;2022-08-30T14:51:41;38.83;;;17.40;;
73569;SDS011;61850;54.980;73.298;2022-08-30T14:54:08;37.63;;;16.52;;
73569;SDS011;61850;54.980;73.298;2022-08-30T14:56:35;31.05;;;17.77;;
73569;SDS011;61850;54.980;73.298;2022-08-30T14:59:02;36.25;;;19.75;;
73569;SDS011;61850;54.980;73.298;2022-08-30T15:01:36;38.95;;;18.80;;
73569;SDS011;61850;54.980;73.298;2022-08-30T15:04:04;37.50;;;18.85;;
73569;SDS011;61850;54.980;73.298;2022-08-30T15:06:31;58.65;;;22.80;;
73569;SDS011;61850;54.980;73.298;2022-08-30T15:08:58;55.35;;;23.90;;
73569;SDS011;61850;54.980;73.298;2022-08-30T15:11:24;44.05;;;17.70;;
73569;SDS011;61850;54.980;73.298;2022-08-30T15:13:52;67.10;;;26.65;;
73569;SDS011;61850;54.980;73.298;2022-08-30T15:16:24;53.88;;;23.50;;
73569;SDS011;61850;54.980;73.298;2022-08-30T15:18:53;54.22;;;27.17;;
73569;SDS011;61850;54.980;73.298;2022-08-30T15:21:24;56.13;;;23.98;;
73569;SDS011;61850;54.980;73.298;2022-08-30T15:23:53;43.85;;;20.02;;
73569;SDS011;61850;54.980;73.298;2022-08-30T15:26:20;45.13;;;20.35;;
73569;SDS011;61850;54.980;73.298;2022-08-30T15:28:46;26.55;;;16.13;;
73569;SDS011;61850;54.980;73.298;2022-08-30T15:31:13;26.70;;;15.82;;
73569;SDS011;61850;54.980;73.298;2022-08-30T15:33:44;31.65;;;17.85;;
73569;SDS011;61850;54.980;73.298;2022-08-30T15:36:15;29.30;;;16.00;;
73569;SDS011;61850;54.980;73.298;2022-08-30T15:38:42;35.88;;;16.45;;
73569;SDS011;61850;54.980;73.298;2022-08-30T15:41:09;24.50;;;15.25;;
73569;SDS011;61850;54.980;73.298;2022-08-30T15:43:37;33.78;;;15.70;;
73569;SDS011;61850;54.980;73.298;2022-08-30T15:46:16;28.35;;;15.35;;
73569;SDS011;61850;54.980;73.298;2022-08-30T15:48:51;24.83;;;14.60;;
73569;SDS011;61850;54.980;73.298;2022-08-30T15:51:21;40.35;;;19.02;;
73569;SDS011;61850;54.980;73.298;2022-08-30T15:53:48;36.53;;;18.23;;
73569;SDS011;61850;54.980;73.298;2022-08-30T15:56:15;30.15;;;16.52;;
73569;SDS011;61850;54.980;73.298;2022-08-30T15:58:42;27.02;;;15.55;;
73569;SDS011;61850;54.980;73.298;2022-08-30T16:01:10;24.02;;;14.32;;
73569;SDS011;61850;54.980;73.298;2022-08-30T16:03:37;25.40;;;15.93;;
73569;SDS011;61850;54.980;73.298;2022-08-30T16:06:13;29.90;;;18.23;;
73569;SDS011;61850;54.980;73.298;2022-08-30T16:08:43;43.15;;;24.90;;
73569;SDS011;61850;54.980;73.298;2022-08-30T16:11:11;35.63;;;19.38;;
73569;SDS011;61850;54.980;73.298;2022-08-30T16:13:39;38.50;;;21.25;;
73569;SDS011;61850;54.980;73.298;2022-08-30T16:16:08;51.00;;;24.63;;
73569;SDS011;61850;54.980;73.298;2022-08-30T16:18:35;51.25;;;25.15;;
73569;SDS011;61850;54.980;73.298;2022-08-30T16:21:08;34.40;;;18.75;;
73569;SDS011;61850;54.980;73.298;2022-08-30T16:23:35;42.28;;;19.10;;
73569;SDS011;61850;54.980;73.298;2022-08-30T16:26:02;30.08;;;17.05;;
73569;SDS011;61850;54.980;73.298;2022-08-30T16:28:32;30.02;;;16.48;;
73569;SDS011;61850;54.980;73.298;2022-08-30T16:31:00;30.50;;;17.52;;
73569;SDS011;61850;54.980;73.298;2022-08-30T16:33:28;28.92;;;16.42;;
73569;SDS011;61850;54.980;73.298;2022-08-30T16:35:57;24.92;;;16.15;;
73569;SDS011;61850;54.980;73.298;2022-08-30T16:38:24;31.15;;;16.13;;
73569;SDS011;61850;54.980;73.298;2022-08-30T16:40:56;30.50;;;17.33;;
73569;SDS011;61850;54.980;73.298;2022-08-30T16:43:27;36.63;;;17.70;;
73569;SDS011;61850;54.980;73.298;2022-08-30T16:45:58;27.70;;;16.10;;
73569;SDS011;61850;54.980;73.298;2022-08-30T16:48:25;27.02;;;15.77;;
73569;SDS011;61850;54.980;73.298;2022-08-30T16:50:52;24.88;;;14.75;;
73569;SDS011;61850;54.980;73.298;2022-08-30T16:53:18;26.55;;;14.25;;
73569;SDS011;61850;54.980;73.298;2022-08-30T16:55:44;28.95;;;14.80;;
73569;SDS011;61850;54.980;73.298;2022-08-30T16:58:10;29.73;;;13.90;;
73569;SDS011;61850;54.980;73.298;2022-08-30T17:00:37;21.90;;;12.85;;
73569;SDS011;61850;54.980;73.298;2022-08-30T17:03:04;27.15;;;13.35;;
73569;SDS011;61850;54.980;73.298;2022-08-30T17:05:33;21.83;;;13.10;;
73569;SDS011;61850;54.980;73.298;2022-08-30T17:08:01;24.73;;;12.70;;
73569;SDS011;61850;54.980;73.298;2022-08-30T17:10:29;18.35;;;12.18;;
73569;SDS011;61850;54.980;73.298;2022-08-30T17:12:56;22.67;;;12.35;;
73569;SDS011;61850;54.980;73.298;2022-08-30T17:15:28;22.60;;;13.27;;
73569;SDS011;61850;54.980;73.298;2022-08-30T17:17:54;30.13;;;13.73;;
73569;SDS011;61850;54.980;73.298;2022-08-30T17:20:21;22.85;;;12.75;;
73569;SDS011;61850;54.980;73.298;2022-08-30T17:22:48;28.38;;;13.50;;
73569;SDS011;61850;54.980;73.298;2022-08-30T17:25:14;27.20;;;12.32;;
73569;SDS011;61850;54.980;73.298;2022-08-30T17:27:41;24.02;;;12.90;;
73569;SDS011;61850;54.980;73.298;2022-08-30T17:30:08;27.02;;;12.88;;
73569;SDS011;61850;54.980;73.298;2022-08-30T17:32:45;27.08;;;13.13;;
73569;SDS011;61850;54.980;73.298;2022-08-30T17:35:11;19.75;;;13.02;;
73569;SDS011;61850;54.980;73.298;2022-08-30T17:37:38;22.23;;;12.85;;
73569;SDS011;61850;54.980;73.298;2022-08-30T17:40:09;25.95;;;13.27;;
73569;SDS011;61850;54.980;73.298;2022-08-30T17:42:36;23.98;;;12.88;;
73569;SDS011;61850;54.980;73.298;2022-08-30T17:45:13;23.92;;;13.80;;
73569;SDS011;61850;54.980;73.298;2022-08-30T17:47:41;21.40;;;13.55;;
73569;SDS011;61850;54.980;73.298;2022-08-30T17:50:08;27.02;;;14.25;;
73569;SDS011;61850;54.980;73.298;2022-08-30T17:52:35;34.10;;;13.60;;
73569;SDS011;61850;54.980;73.298;2022-08-30T17:55:02;30.27;;;13.85;;
73569;SDS011;61850;54.980;73.298;2022-08-30T17:57:29;28.55;;;13.88;;
73569;SDS011;61850;54.980;73.298;2022-08-30T17:59:56;30.58;;;15.38;;
73569;SDS011;61850;54.980;73.298;2022-08-30T18:02:23;26.58;;;15.15;;
73569;SDS011;61850;54.980;73.298;2022-08-30T18:04:50;31.15;;;15.30;;
73569;SDS011;61850;54.980;73.298;2022-08-30T18:07:22;29.50;;;14.73;;
73569;SDS011;61850;54.980;73.298;2022-08-30T18:09:50;26.08;;;14.52;;
73569;SDS011;61850;54.980;73.298;2022-08-30T18:12:17;26.45;;;14.40;;
73569;SDS011;61850;54.980;73.298;2022-08-30T18:14:44;24.75;;;14.85;;
73569;SDS011;61850;54.980;73.298;2022-08-30T18:17:11;35.50;;;17.77;;
73569;SDS011;61850;54.980;73.298;2022-08-30T18:19:38;32.63;;;15.73;;
73569;SDS011;61850;54.980;73.298;2022-08-30T18:22:04;25.17;;;14.77;;
73569;SDS011;61850;54.980;73.298;2022-08-30T18:24:32;35.85;;;14.98;;
73569;SDS011;61850;54.980;73.298;2022-08-30T18:27:03;34.45;;;16.38;;
73569;SDS011;61850;54.980;73.298;2022-08-30T18:29:30;36.58;;;16.10;;
73569;SDS011;61850;54.980;73.298;2022-08-30T18:31:59;28.95;;;14.68;;
73569;SDS011;61850;54.980;73.298;2022-08-30T18:34:26;25.73;;;14.02;;
73569;SDS011;61850;54.980;73.298;2022-08-30T18:36:53;28.13;;;14.27;;
73569;SDS011;61850;54.980;73.298;2022-08-30T18:39:20;24.95;;;14.90;;